Time;durP1;ratioP1;P1;durP2;ratioP2;P2;SDS_P1;SDS_P2;PMS_P1;PMS_P2;Temp;Humidity;BMP_temperature;BMP_pressure;BME280_temperature;BME280_humidity;BME280_pressure;Samples;Min_cycle;Max_cycle;Signal;HPM_P1;HPM_P2
2022/11/15 00:01:32;;;;;;;12.33;9.10;;;;;;;9.67;100.00;98783.88;5093630;28;20200;-80
2022/11/15 00:04:02;;;;;;;14.53;9.17;;;;;;;9.69;100.00;98774.03;5094806;28;20279;-80
2022/11/15 00:06:30;;;;;;;12.87;9.47;;;;;;;9.68;100.00;98782.09;5057043;28;20256;-80
2022/11/15 00:08:59;;;;;;;12.60;9.93;;;;;;;9.67;100.00;98778.59;5095740;28;20264;-80
2022/11/15 00:11:32;;;;;;;12.97;8.83;;;;;;;9.57;100.00;98774.88;5092674;28;20253;-80
2022/11/15 00:14:03;;;;;;;14.17;8.83;;;;;;;9.61;100.00;98773.69;5092261;28;20261;-80
2022/11/15 00:16:31;;;;;;;15.97;9.50;;;;;;;9.59;100.00;98756.25;5094648;28;20195;-80
2022/11/15 00:18:59;;;;;;;12.77;8.70;;;;;;;9.61;100.00;98773.69;5090581;28;20656;-80
2022/11/15 00:21:29;;;;;;;11.07;8.93;;;;;;;9.56;100.00;98764.41;5059589;28;20184;-79
2022/11/15 00:23:57;;;;;;;12.53;9.80;;;;;;;9.55;100.00;98765.31;5089667;28;20203;-79
2022/11/15 00:26:26;;;;;;;12.43;8.30;;;;;;;9.53;100.00;98769.88;5088012;28;20192;-79
2022/11/15 00:28:54;;;;;;;10.40;8.53;;;;;;;9.52;100.00;98768.19;5090994;28;20192;-80
2022/11/15 00:31:24;;;;;;;12.20;9.10;;;;;;;9.51;100.00;98769.97;5085515;28;20192;-79
2022/11/15 00:33:56;;;;;;;14.20;8.93;;;;;;;9.54;100.00;98774.19;5031701;28;20297;-79
2022/11/15 00:36:24;;;;;;;15.77;9.27;;;;;;;9.57;100.00;98763.44;5027338;28;20204;-80
2022/11/15 00:38:53;;;;;;;12.97;9.60;;;;;;;9.55;100.00;98763.53;5033304;28;20205;-80
2022/11/15 00:41:21;;;;;;;12.73;8.67;;;;;;;9.56;100.00;98764.41;5031245;28;20201;-80
2022/11/15 00:43:50;;;;;;;14.40;9.13;;;;;;;9.53;100.00;98761.94;4996924;28;20255;-79
2022/11/15 00:46:18;;;;;;;11.73;9.03;;;;;;;9.57;100.00;98764.28;4984812;28;20352;-79
2022/11/15 00:48:49;;;;;;;12.27;9.00;;;;;;;9.53;100.00;98756.66;5044237;28;20193;-80
2022/11/15 00:51:17;;;;;;;11.90;8.97;;;;;;;9.48;100.00;98754.31;5040932;28;20280;-80
2022/11/15 00:53:47;;;;;;;10.90;8.53;;;;;;;9.54;100.00;98751.25;5091555;28;20216;-80
2022/11/15 00:56:17;;;;;;;11.83;8.50;;;;;;;9.52;100.00;98741.75;5093708;28;20187;-80
2022/11/15 00:58:51;;;;;;;13.30;8.40;;;;;;;9.48;100.00;98750.84;5092586;28;20699;-80
2022/11/15 01:01:19;;;;;;;12.10;8.00;;;;;;;9.53;100.00;98744.28;5093550;28;20275;-80
2022/11/15 01:03:50;;;;;;;12.07;9.80;;;;;;;9.59;100.00;98754.47;5071997;28;20239;-80
2022/11/15 01:06:18;;;;;;;10.50;8.30;;;;;;;9.66;100.00;98747.81;5088838;28;20591;-80
2022/11/15 01:08:46;;;;;;;10.43;7.90;;;;;;;9.74;100.00;98744.63;5091387;28;20184;-79
2022/11/15 01:11:15;;;;;;;13.53;8.23;;;;;;;9.71;100.00;98737.75;5095875;28;20195;-80
2022/11/15 01:13:43;;;;;;;10.97;8.23;;;;;;;9.76;100.00;98737.47;5094757;28;20220;-80
2022/11/15 01:16:14;;;;;;;12.27;8.13;;;;;;;9.75;100.00;98733.13;5091415;28;20240;-80
2022/11/15 01:18:43;;;;;;;11.23;7.30;;;;;;;9.82;100.00;98733.53;5093286;28;20191;-80
2022/11/15 01:21:15;;;;;;;13.70;7.87;;;;;;;9.86;100.00;98733.25;5094962;28;20198;-80
2022/11/15 01:23:45;;;;;;;11.33;7.53;;;;;;;9.95;100.00;98724.69;5093474;28;20201;-80
2022/11/15 01:26:16;;;;;;;9.93;7.40;;;;;;;9.94;100.00;98723.00;5093416;28;20344;-80
2022/11/15 01:28:45;;;;;;;11.07;7.83;;;;;;;9.86;100.00;98725.31;5089796;28;20207;-80
2022/11/15 01:31:15;;;;;;;7.97;6.77;;;;;;;9.75;100.00;98735.78;5058455;28;20252;-80
2022/11/15 01:33:44;;;;;;;12.57;8.03;;;;;;;9.67;100.00;98728.34;5092948;28;20219;-80
2022/11/15 01:36:15;;;;;;;10.70;8.03;;;;;;;9.82;100.00;98733.53;5090944;28;20191;-80
2022/11/15 01:38:44;;;;;;;13.13;8.47;;;;;;;9.66;100.00;98731.94;5093085;28;20196;-79
2022/11/15 01:41:18;;;;;;;13.63;8.27;;;;;;;9.67;100.00;98724.88;5092838;28;20183;-80
2022/11/15 01:43:48;;;;;;;9.93;8.13;;;;;;;9.69;100.00;98722.97;5091809;28;20236;-79
2022/11/15 01:46:25;;;;;;;10.30;8.43;;;;;;;9.67;100.00;98725.72;5091618;28;20262;-80
2022/11/15 01:48:57;;;;;;;12.03;8.43;;;;;;;9.70;100.00;98729.94;5092609;28;20324;-80
2022/11/15 01:51:31;;;;;;;12.63;8.67;;;;;;;9.66;100.00;98728.47;5092592;28;20187;-80
2022/11/15 01:54:03;;;;;;;12.07;8.40;;;;;;;9.59;100.00;98729.81;5095272;28;20243;-79
2022/11/15 01:56:37;;;;;;;9.40;7.97;;;;;;;9.68;100.00;98735.34;5054323;28;20269;-80
2022/11/15 01:59:10;;;;;;;14.10;8.50;;;;;;;9.54;100.00;98722.16;5091616;28;20196;-80
2022/11/15 02:01:38;;;;;;;11.33;8.50;;;;;;;9.60;100.00;98715.63;5087754;28;20196;-80
2022/11/15 02:04:12;;;;;;;13.73;8.87;;;;;;;9.61;100.00;98706.75;5092383;28;20200;-80
2022/11/15 02:06:45;;;;;;;13.07;8.70;;;;;;;9.61;100.00;98697.03;5091449;28;20203;-80
2022/11/15 02:09:14;;;;;;;11.53;8.93;;;;;;;9.50;100.00;98690.78;5095177;28;20203;-79
2022/11/15 02:11:46;;;;;;;14.17;8.60;;;;;;;9.48;100.00;98696.16;5092864;28;20184;-80
2022/11/15 02:14:16;;;;;;;14.73;7.80;;;;;;;9.52;100.00;98697.66;5086470;28;20239;-80
2022/11/15 02:16:55;;;;;;;12.53;8.77;;;;;;;9.50;100.00;98698.72;5091153;28;20222;-79
2022/11/15 02:19:52;;;;;;;9.13;7.80;;;;;;;9.53;100.00;98687.91;5090704;28;20199;-79
2022/11/15 02:22:38;;;;;;;11.00;8.43;;;;;;;9.60;100.00;98684.75;5095716;28;20200;-81
2022/11/15 02:25:23;;;;;;;12.17;7.83;;;;;;;9.59;100.00;98676.94;5093776;28;20187;-80
2022/11/15 02:28:31;;;;;;;9.50;8.07;;;;;;;9.63;100.00;98681.91;5091843;28;20188;-79
2022/11/15 02:31:06;;;;;;;12.13;7.63;;;;;;;9.64;100.00;98672.16;5094047;28;20196;-80
2022/11/15 02:33:45;;;;;;;11.90;8.70;;;;;;;9.59;100.00;98679.59;5102091;28;20211;-80
2022/11/15 02:36:20;;;;;;;11.20;8.57;;;;;;;9.57;100.00;98674.41;5032975;28;20201;-80
2022/11/15 02:38:59;;;;;;;13.03;8.60;;;;;;;9.66;100.00;98675.59;5034310;28;20196;-80
2022/11/15 02:41:37;;;;;;;11.33;8.00;;;;;;;9.55;100.00;98667.50;5031851;28;20196;-80
2022/11/15 02:44:10;;;;;;;12.53;8.40;;;;;;;9.67;100.00;98664.91;5030596;28;20198;-80
2022/11/15 02:49:35;;;;;;;10.63;7.50;;;;;;;9.68;100.00;98677.16;5033943;28;20202;-80
2022/11/15 02:52:04;;;;;;;10.87;7.43;;;;;;;9.68;100.00;98671.88;5030138;28;20264;-80
2022/11/15 02:54:35;;;;;;;11.57;7.47;;;;;;;9.71;100.00;98666.38;5033833;28;20213;-80
2022/11/15 02:57:07;;;;;;;9.73;6.93;;;;;;;9.73;100.00;98656.53;5025274;28;20201;-80
2022/11/15 03:00:15;;;;;;;14.20;7.30;;;;;;;9.71;100.00;98652.28;5014897;28;20193;-80
2022/11/15 03:03:21;;;;;;;11.27;6.67;;;;;;;9.71;100.00;98660.22;5096850;28;20694;-80
2022/11/15 03:05:58;;;;;;;10.27;7.67;;;;;;;9.85;100.00;98654.00;5103931;28;20187;-80
2022/11/15 03:08:32;;;;;;;11.30;7.13;;;;;;;9.80;100.00;98662.25;5097936;28;20195;-80
2022/11/15 03:11:08;;;;;;;9.13;6.87;;;;;;;9.86;100.00;98653.06;5091506;28;20191;-80
2022/11/15 03:13:45;;;;;;;10.23;7.23;;;;;;;9.86;100.00;98642.47;5088595;28;20199;-80
2022/11/15 03:16:21;;;;;;;11.73;7.40;;;;;;;9.81;100.00;98636.63;5091413;28;20187;-80
2022/11/15 03:18:56;;;;;;;14.43;7.30;;;;;;;9.90;100.00;98638.66;5055914;28;20191;-80
2022/11/15 03:21:29;;;;;;;10.07;6.80;;;;;;;9.71;100.00;98644.38;5060364;28;20202;-80
2022/11/15 03:24:02;;;;;;;9.27;7.00;;;;;;;9.84;100.00;98644.34;5093617;28;20195;-80
2022/11/15 03:26:32;;;;;;;9.33;6.23;;;;;;;10.03;100.00;98650.06;5091444;28;20245;-80
2022/11/15 03:29:07;;;;;;;8.23;6.33;;;;;;;9.94;100.00;98651.56;5093888;28;20228;-80
2022/11/15 03:31:49;;;;;;;8.97;6.03;;;;;;;9.98;100.00;98649.56;5092576;28;20226;-80
2022/11/15 03:34:28;;;;;;;9.97;6.10;;;;;;;9.98;100.00;98646.91;5094108;28;20216;-80
2022/11/15 03:36:58;;;;;;;9.73;6.17;;;;;;;9.86;100.00;98645.97;5095241;28;20203;-80
2022/11/15 03:39:28;;;;;;;8.73;6.50;;;;;;;9.89;100.00;98642.25;5090523;28;20249;-80
2022/11/15 03:42:09;;;;;;;8.97;6.47;;;;;;;9.92;100.00;98649.97;5096313;27;20237;-80
2022/11/15 03:44:44;;;;;;;10.57;6.50;;;;;;;9.88;100.00;98649.34;5095207;28;20199;-80
2022/11/15 03:47:17;;;;;;;10.40;6.63;;;;;;;9.81;100.00;98647.22;5094702;28;20219;-80
2022/11/15 03:49:53;;;;;;;9.53;6.50;;;;;;;9.79;100.00;98649.97;5095102;28;20188;-80
2022/11/15 03:52:23;;;;;;;9.23;6.63;;;;;;;9.79;100.00;98649.97;5094700;28;20191;-80
2022/11/15 03:54:53;;;;;;;8.57;6.30;;;;;;;9.87;100.00;98654.75;5091938;28;20465;-79
2022/11/15 03:57:24;;;;;;;8.87;6.10;;;;;;;10.04;100.00;98654.41;5093721;28;20190;-80
2022/11/15 03:59:52;;;;;;;8.57;6.10;;;;;;;10.13;100.00;98647.59;5094634;28;20245;-80
2022/11/15 04:02:21;;;;;;;6.93;5.43;;;;;;;10.22;100.00;98649.63;5093714;28;20200;-80
2022/11/15 04:04:52;;;;;;;8.03;5.53;;;;;;;10.14;100.00;98642.25;5094751;28;20196;-80
2022/11/15 04:07:20;;;;;;;7.37;5.90;;;;;;;10.18;100.00;98642.84;5093536;28;20223;-80
2022/11/15 04:10:05;;;;;;;6.83;5.50;;;;;;;10.12;100.00;98643.28;5092015;28;20287;-80
2022/11/15 04:12:37;;;;;;;6.23;5.03;;;;;;;10.21;100.00;98646.13;5093438;28;20187;-80
2022/11/15 04:15:10;;;;;;;9.63;5.10;;;;;;;10.29;100.00;98641.16;5094581;28;20211;-80
2022/11/15 04:17:41;;;;;;;7.10;4.80;;;;;;;10.38;100.00;98644.13;5094105;28;20200;-80
2022/11/15 04:25:43;;;;;;;6.07;4.43;;;;;;;10.37;100.00;98635.34;5094427;28;20266;-80
2022/11/15 04:28:11;;;;;;;6.53;4.50;;;;;;;10.40;100.00;98640.41;5093239;28;20249;-80
2022/11/15 04:30:40;;;;;;;7.77;4.67;;;;;;;10.40;100.00;98621.88;5096563;27;20280;-80
2022/11/15 04:33:08;;;;;;;5.33;4.30;;;;;;;10.44;100.00;98625.16;5092022;28;20196;-80
2022/11/15 04:35:38;;;;;;;8.07;4.30;;;;;;;10.56;100.00;98624.25;5089335;28;20219;-80
2022/11/15 04:38:09;;;;;;;7.70;4.53;;;;;;;10.51;100.00;98621.09;5096583;27;20372;-80
2022/11/15 04:40:39;;;;;;;6.23;4.03;;;;;;;10.60;100.00;98623.06;5093919;28;20256;-80
2022/11/15 04:43:09;;;;;;;8.27;4.70;;;;;;;10.55;100.00;98630.53;5047335;28;20671;-80
2022/11/15 04:45:37;;;;;;;7.90;4.40;;;;;;;10.49;100.00;98626.50;5047484;28;20270;-80
2022/11/15 04:48:06;;;;;;;7.07;4.83;;;;;;;10.54;100.00;98623.53;5051584;28;20190;-80
2022/11/15 04:50:35;;;;;;;7.07;4.73;;;;;;;10.51;100.00;98616.63;5050889;28;20200;-80
2022/11/15 04:53:05;;;;;;;6.63;4.20;;;;;;;10.56;100.00;98608.38;5044145;28;20236;-80
2022/11/15 04:55:35;;;;;;;7.50;4.67;;;;;;;10.58;100.00;98611.75;5018654;28;20213;-79
2022/11/15 04:58:04;;;;;;;6.47;4.83;;;;;;;10.55;100.00;98606.69;5046751;28;20201;-84
2022/11/15 05:00:32;;;;;;;6.90;5.03;;;;;;;10.64;100.00;98599.88;5054809;28;20219;-80
2022/11/15 05:05:46;;;;;;;6.93;4.80;;;;;;;10.78;100.00;98597.03;5093514;28;20188;-80
2022/11/15 05:08:16;;;;;;;6.57;5.10;;;;;;;10.79;100.00;98596.09;5093696;28;20195;-80
2022/11/15 05:10:44;;;;;;;6.17;5.00;;;;;;;10.80;100.00;98600.41;5093185;28;20184;-80
2022/11/15 05:13:12;;;;;;;8.83;5.00;;;;;;;10.76;100.00;98597.16;5065981;28;20276;-80
2022/11/15 05:15:41;;;;;;;7.07;4.90;;;;;;;10.82;100.00;98591.44;5091166;28;20254;-80
2022/11/15 05:18:09;;;;;;;9.17;5.27;;;;;;;10.78;100.00;98600.53;5092839;28;20194;-80
2022/11/15 05:20:39;;;;;;;9.67;5.77;;;;;;;10.77;100.00;98601.50;5093331;28;20199;-80
2022/11/15 05:23:09;;;;;;;8.13;5.60;;;;;;;10.69;100.00;98595.06;5089391;28;20192;-80
2022/11/15 05:25:40;;;;;;;7.30;5.83;;;;;;;10.65;100.00;98589.16;5093321;28;20237;-80
2022/11/15 05:28:08;;;;;;;8.97;4.80;;;;;;;10.70;100.00;98583.50;5092291;28;20183;-79
2022/11/15 05:30:37;;;;;;;5.60;4.60;;;;;;;10.70;100.00;98587.00;5092912;28;20199;-80
2022/11/15 05:33:07;;;;;;;9.03;5.60;;;;;;;10.70;100.00;98584.34;5092831;28;20699;-80
2022/11/15 05:35:41;;;;;;;7.07;4.53;;;;;;;10.66;100.00;98580.25;5074571;28;20251;-80
2022/11/15 05:38:10;;;;;;;9.10;4.37;;;;;;;10.59;100.00;98577.22;5091151;28;20188;-80
2022/11/15 05:40:39;;;;;;;7.87;4.37;;;;;;;10.49;100.00;98568.25;5093054;28;20225;-80
2022/11/15 05:43:08;;;;;;;6.37;4.90;;;;;;;10.40;100.00;98566.28;5090102;28;20223;-80
2022/11/15 05:45:40;;;;;;;5.93;4.80;;;;;;;10.41;100.00;98569.75;5091988;28;20249;-80
2022/11/15 05:48:11;;;;;;;7.37;5.00;;;;;;;10.39;100.00;98564.59;5092969;28;20196;-80
2022/11/15 05:50:42;;;;;;;9.00;4.97;;;;;;;10.32;100.00;98558.88;5092941;28;20236;-80
2022/11/15 05:53:13;;;;;;;6.20;4.90;;;;;;;10.29;100.00;98553.81;5092027;28;20223;-79
2022/11/15 05:55:47;;;;;;;6.67;4.73;;;;;;;10.28;100.00;98564.53;5092774;28;20226;-80
2022/11/15 05:58:16;;;;;;;6.77;4.40;;;;;;;10.19;100.00;98562.50;5091424;28;20195;-79
2022/11/15 06:00:51;;;;;;;5.70;4.30;;;;;;;10.31;100.00;98565.13;5093015;28;20188;-80
2022/11/15 06:03:19;;;;;;;6.17;4.33;;;;;;;10.21;100.00;98564.06;5077617;28;20229;-80
2022/11/15 06:05:49;;;;;;;5.23;4.27;;;;;;;10.23;100.00;98572.81;5096186;28;20196;-80
2022/11/15 06:08:17;;;;;;;7.03;4.43;;;;;;;10.09;100.00;98564.13;5098080;28;20192;-80
2022/11/15 06:10:47;;;;;;;5.53;4.47;;;;;;;10.11;100.00;98567.50;5097741;28;20203;-80
2022/11/15 06:13:15;;;;;;;9.23;4.53;;;;;;;10.09;100.00;98580.84;5097908;28;20233;-80
2022/11/15 06:15:44;;;;;;;6.97;4.63;;;;;;;10.10;100.00;98587.81;5099772;28;20261;-80
2022/11/15 06:18:12;;;;;;;7.33;4.93;;;;;;;10.00;100.00;98594.72;5092079;28;20233;-80
2022/11/15 06:20:41;;;;;;;9.27;5.03;;;;;;;10.03;100.00;98592.69;5094367;28;20257;-80
2022/11/15 06:23:09;;;;;;;7.13;4.70;;;;;;;9.99;100.00;98600.97;5096431;28;20220;-80
2022/11/15 06:25:37;;;;;;;7.60;4.40;;;;;;;10.02;100.00;98593.66;5096280;28;20222;-80
2022/11/15 06:28:07;;;;;;;6.13;4.60;;;;;;;10.00;100.00;98590.28;5095212;28;20245;-79
2022/11/15 06:30:36;;;;;;;6.67;4.83;;;;;;;10.07;100.00;98597.78;5095915;28;20187;-80
2022/11/15 06:33:06;;;;;;;8.67;5.13;;;;;;;10.09;100.00;98596.72;5095422;28;20188;-80
2022/11/15 06:35:35;;;;;;;7.50;5.00;;;;;;;10.08;100.00;98584.44;5096285;28;20694;-79
2022/11/15 06:38:05;;;;;;;9.47;4.97;;;;;;;10.12;100.00;98593.00;5096366;28;20202;-80
2022/11/15 06:40:36;;;;;;;7.63;5.20;;;;;;;10.10;100.00;98602.84;5096135;28;20669;-80
2022/11/15 06:43:05;;;;;;;8.07;4.83;;;;;;;10.13;100.00;98584.09;5095380;28;20203;-80
2022/11/15 06:45:35;;;;;;;7.37;4.80;;;;;;;9.98;100.00;98594.84;5091381;28;20232;-80
2022/11/15 06:48:03;;;;;;;6.30;4.47;;;;;;;10.09;100.00;98602.00;5096182;28;20225;-80
2022/11/15 06:50:31;;;;;;;6.07;4.30;;;;;;;10.03;100.00;98602.44;5094948;28;20238;-80
2022/11/15 06:53:02;;;;;;;5.47;4.63;;;;;;;10.11;100.00;98605.38;5094964;28;20203;-80
2022/11/15 06:55:31;;;;;;;7.13;5.07;;;;;;;10.15;100.00;98606.88;5093477;28;20642;-80
2022/11/15 06:58:00;;;;;;;7.37;5.20;;;;;;;10.09;100.00;98607.31;5089358;28;20256;-80
2022/11/15 07:00:28;;;;;;;7.30;4.87;;;;;;;10.12;100.00;98611.53;5091227;28;20244;-80
2022/11/15 07:03:00;;;;;;;8.30;4.97;;;;;;;10.16;100.00;98619.16;5095754;28;20226;-79
2022/11/15 07:05:29;;;;;;;8.87;5.10;;;;;;;10.12;100.00;98627.41;5095759;28;20210;-80
2022/11/15 07:07:59;;;;;;;8.17;5.70;;;;;;;10.06;100.00;98627.84;5092129;28;20248;-79
2022/11/15 07:10:28;;;;;;;6.90;5.17;;;;;;;10.14;100.00;98631.66;5092439;28;20639;-80
2022/11/15 07:12:58;;;;;;;6.80;4.77;;;;;;;10.01;100.00;98633.44;5094540;28;20245;-80
2022/11/15 07:15:27;;;;;;;7.27;5.67;;;;;;;10.07;100.00;98637.47;5089715;28;20191;-80
2022/11/15 07:17:55;;;;;;;5.97;4.87;;;;;;;10.02;100.00;98621.91;5092766;28;20216;-80
2022/11/15 07:20:25;;;;;;;7.60;5.23;;;;;;;10.03;100.00;98620.94;5095928;28;20200;-80
2022/11/15 07:23:00;;;;;;;8.87;5.67;;;;;;;10.24;100.00;98614.19;5094537;28;20253;-80
2022/11/15 07:25:29;;;;;;;11.23;5.90;;;;;;;10.13;100.00;98616.69;5029903;28;20217;-80
2022/11/15 07:27:57;;;;;;;7.33;5.83;;;;;;;10.18;100.00;98611.09;4983389;28;20198;-80
2022/11/15 07:30:27;;;;;;;9.87;6.47;;;;;;;10.17;100.00;98599.66;4981308;28;20252;-80
2022/11/15 07:32:57;;;;;;;9.37;6.73;;;;;;;10.01;100.00;98609.63;5028249;28;20236;-79
2022/11/15 07:35:28;;;;;;;9.30;6.57;;;;;;;10.07;100.00;98624.25;5033635;28;20190;-80
2022/11/15 07:37:58;;;;;;;9.67;6.30;;;;;;;10.08;100.00;98621.50;5033190;28;20268;-80
2022/11/15 07:40:29;;;;;;;10.07;6.10;;;;;;;10.15;100.00;98621.91;5030943;28;20367;-81
2022/11/15 07:43:00;;;;;;;8.63;5.97;;;;;;;10.20;100.00;98630.34;5041734;28;20204;-80
2022/11/15 07:45:29;;;;;;;9.13;6.17;;;;;;;10.15;100.00;98627.22;5101492;28;20288;-81
2022/11/15 07:47:57;;;;;;;8.67;5.70;;;;;;;10.36;100.00;98623.06;5097715;28;20196;-80
2022/11/15 07:50:29;;;;;;;8.83;6.40;;;;;;;10.41;100.00;98626.19;5094049;28;20638;-81
2022/11/15 07:52:59;;;;;;;10.43;7.33;;;;;;;10.42;100.00;98627.03;5093713;28;20195;-81
2022/11/15 07:55:29;;;;;;;11.20;7.93;;;;;;;10.47;100.00;98620.47;5095094;28;20191;-79
2022/11/15 07:58:03;;;;;;;26.67;18.23;;;;;;;10.54;100.00;98611.13;5092787;28;20215;-80
2022/11/15 08:00:34;;;;;;;12.87;9.47;;;;;;;10.60;100.00;98615.13;5094756;28;20265;-80
2022/11/15 08:03:05;;;;;;;8.00;7.13;;;;;;;10.58;100.00;98617.03;5091009;28;20196;-80
2022/11/15 08:05:37;;;;;;;10.23;8.13;;;;;;;10.62;100.00;98607.09;5093891;28;20306;-80
2022/11/15 08:08:05;;;;;;;6.47;5.47;;;;;;;10.76;100.00;98612.22;5092197;28;20219;-80
2022/11/15 08:10:34;;;;;;;7.50;5.03;;;;;;;10.71;100.00;98607.28;5092661;28;20195;-80
2022/11/15 08:13:11;;;;;;;8.63;4.33;;;;;;;10.80;100.00;98598.63;5093261;28;20194;-80
2022/11/15 08:15:40;;;;;;;5.90;4.80;;;;;;;10.83;100.00;98606.34;5094804;28;20184;-80
2022/11/15 08:18:13;;;;;;;6.60;4.77;;;;;;;10.85;100.00;98591.19;5093412;28;20247;-80
2022/11/15 08:20:43;;;;;;;5.23;4.37;;;;;;;10.91;100.00;98591.72;5094825;28;20238;-80
2022/11/15 08:23:12;;;;;;;7.57;4.70;;;;;;;10.94;100.00;98581.72;5094374;28;20323;-80
2022/11/15 08:25:40;;;;;;;9.63;5.37;;;;;;;11.02;100.00;98582.00;5093338;28;20196;-80
2022/11/15 08:28:11;;;;;;;6.13;4.60;;;;;;;10.95;100.00;98590.50;5093365;28;20188;-80
2022/11/15 08:30:42;;;;;;;6.93;4.93;;;;;;;11.00;100.00;98588.34;5094123;28;20187;-80
2022/11/15 08:33:12;;;;;;;6.77;4.53;;;;;;;11.05;100.00;98587.06;5094086;28;20224;-80
2022/11/15 08:35:44;;;;;;;7.37;5.00;;;;;;;10.98;100.00;98577.84;5093834;28;20217;-80
2022/11/15 08:38:13;;;;;;;8.27;5.37;;;;;;;10.95;100.00;98564.84;5093016;28;20207;-80
2022/11/15 08:40:41;;;;;;;7.80;5.07;;;;;;;11.15;100.00;98576.59;5094375;28;20192;-79
2022/11/15 08:43:10;;;;;;;7.77;4.10;;;;;;;11.18;100.00;98573.69;5086877;28;20264;-80
2022/11/15 08:45:38;;;;;;;7.23;4.37;;;;;;;11.26;100.00;98571.31;5093683;28;20348;-80
2022/11/15 08:48:06;;;;;;;8.10;4.47;;;;;;;11.36;100.00;98574.13;5092208;28;20227;-80
2022/11/15 08:50:35;;;;;;;5.57;4.50;;;;;;;11.29;100.00;98568.47;5091225;28;20196;-80
2022/11/15 08:53:09;;;;;;;6.80;4.50;;;;;;;11.29;100.00;98568.47;5092615;28;20252;-81
2022/11/15 08:55:41;;;;;;;10.50;5.30;;;;;;;11.36;100.00;98561.69;5090828;28;20203;-80
2022/11/15 08:58:09;;;;;;;18.03;12.00;;;;;;;11.38;100.00;98569.53;5092915;27;20261;-81
2022/11/15 09:00:39;;;;;;;18.80;14.70;;;;;;;11.37;100.00;98570.50;5093638;28;20191;-81
2022/11/15 09:03:08;;;;;;;17.57;12.43;;;;;;;11.38;100.00;98564.22;5093726;28;20192;-81
2022/11/15 09:05:38;;;;;;;7.07;5.60;;;;;;;11.38;100.00;98566.88;5093422;28;20195;-81
2022/11/15 09:08:08;;;;;;;7.03;4.73;;;;;;;11.60;100.00;98568.75;5093584;28;20199;-81
2022/11/15 09:10:56;;;;;;;9.17;4.60;;;;;;;11.56;100.00;98565.47;5078338;28;20226;-81
2022/11/15 09:13:25;;;;;;;8.40;4.60;;;;;;;11.63;100.00;98561.38;5092228;28;20249;-80
2022/11/15 09:15:54;;;;;;;8.03;4.93;;;;;;;11.67;100.00;98562.81;5050827;28;20243;-81
2022/11/15 09:18:23;;;;;;;8.83;5.43;;;;;;;11.59;100.00;98561.75;5048669;28;20212;-80
2022/11/15 09:20:52;;;;;;;6.57;5.03;;;;;;;11.60;100.00;98555.47;5048373;28;20236;-80
2022/11/15 09:23:21;;;;;;;7.43;5.33;;;;;;;11.73;100.00;98548.25;5048982;28;20235;-80
2022/11/15 09:25:50;;;;;;;6.43;5.00;;;;;;;11.79;100.00;98549.59;5051803;28;20675;-80
2022/11/15 09:28:18;;;;;;;7.17;4.90;;;;;;;11.90;100.00;98557.56;5050550;28;20212;-80
2022/11/15 09:30:48;;;;;;;7.63;5.40;;;;;;;11.79;100.00;98558.38;5050804;28;20209;-80
2022/11/15 09:33:16;;;;;;;6.40;5.13;;;;;;;11.90;100.00;98562.88;5047421;28;20220;-80
2022/11/15 09:35:46;;;;;;;8.03;5.70;;;;;;;12.00;100.00;98555.88;5043949;28;20277;-80
2022/11/15 09:38:15;;;;;;;6.03;4.87;;;;;;;12.00;100.00;98561.19;5050380;28;20240;-80
2022/11/15 09:40:49;;;;;;;6.43;4.97;;;;;;;11.97;100.00;98554.31;5074811;28;20195;-81
2022/11/15 09:43:44;;;;;;;12.63;9.80;;;;;;;12.15;100.00;98562.59;5094457;28;20245;-81
2022/11/15 09:46:21;;;;;;;5.90;4.60;;;;;;;12.35;100.00;98554.84;5091039;28;20704;-81
2022/11/15 09:48:54;;;;;;;8.07;4.70;;;;;;;12.28;100.00;98559.81;5070828;28;20203;-81
2022/11/15 09:51:28;;;;;;;7.63;4.97;;;;;;;12.27;100.00;98552.81;5067294;28;20197;-80
2022/11/15 09:54:05;;;;;;;7.50;4.90;;;;;;;12.29;100.00;98549.06;5064663;28;20195;-81
2022/11/15 09:56:57;;;;;;;6.80;4.03;;;;;;;12.21;100.00;98540.03;5069204;28;20214;-81
2022/11/15 09:59:52;;;;;;;7.40;4.40;;;;;;;12.26;100.00;98545.81;5068629;28;20262;-80
2022/11/15 10:02:44;;;;;;;5.77;4.00;;;;;;;12.30;100.00;98534.81;5070048;28;20223;-80
2022/11/15 10:05:18;;;;;;;8.13;4.20;;;;;;;12.39;100.00;98533.22;5070800;28;20196;-81
2022/11/15 10:07:55;;;;;;;8.37;4.40;;;;;;;12.37;100.00;98524.56;5087144;28;20229;-80
2022/11/15 10:10:31;;;;;;;7.53;4.70;;;;;;;12.31;100.00;98519.72;5099014;28;20195;-80
2022/11/15 10:13:15;;;;;;;7.13;4.57;;;;;;;12.33;100.00;98521.28;5096881;28;20200;-80
2022/11/15 10:15:47;;;;;;;6.23;4.50;;;;;;;12.26;100.00;98513.97;5092761;28;20230;-80
2022/11/15 10:18:19;;;;;;;7.30;4.50;;;;;;;12.37;100.00;98505.13;5093199;28;20280;-80
2022/11/15 10:20:50;;;;;;;5.83;4.67;;;;;;;12.58;100.00;98504.19;5092275;28;20196;-80
2022/11/15 10:23:21;;;;;;;5.90;3.97;;;;;;;12.66;100.00;98494.75;5093093;28;20196;-80
2022/11/15 10:25:54;;;;;;;5.87;4.30;;;;;;;12.71;100.00;98490.72;5088417;28;20196;-80
2022/11/15 10:28:28;;;;;;;6.47;4.53;;;;;;;12.82;100.00;98485.34;5092852;28;20199;-80
2022/11/15 10:30:59;;;;;;;7.30;4.07;;;;;;;12.63;100.00;98487.84;5089814;28;20195;-80
2022/11/15 10:33:33;;;;;;;6.27;4.00;;;;;;;12.68;100.00;98485.66;5092739;28;20200;-80
2022/11/15 10:36:24;;;;;;;5.93;3.93;;;;;;;12.68;100.00;98485.66;5091456;28;20199;-80
2022/11/15 10:38:58;;;;;;;6.83;4.07;;;;;;;12.70;100.00;98488.19;5092283;28;20222;-80
2022/11/15 10:41:37;;;;;;;4.67;4.07;;;;;;;12.81;100.00;98477.50;5095890;28;20195;-80
2022/11/15 10:44:30;;;;;;;8.10;4.10;;;;;;;12.70;100.00;98478.41;5093688;28;20188;-80
2022/11/15 10:47:23;;;;;;;5.87;4.33;;;;;;;12.82;100.00;98468.56;5090335;28;20273;-80
2022/11/15 10:49:57;;;;;;;6.93;4.17;;;;;;;12.75;100.00;98473.56;5094764;28;20187;-81
2022/11/15 10:52:25;;;;;;;5.90;4.20;;;;;;;12.73;100.00;98477.31;5090548;28;20662;-80
2022/11/15 10:54:57;;;;;;;5.37;4.20;;;;;;;12.86;100.00;98472.66;5093551;28;20204;-80
2022/11/15 10:57:28;;;;;;;7.53;4.20;;;;;;;12.61;100.00;98477.34;5093279;28;20246;-80
2022/11/15 11:00:01;;;;;;;6.53;4.20;;;;;;;12.87;100.00;98464.56;5093842;28;20223;-80
2022/11/15 11:02:34;;;;;;;5.77;4.23;;;;;;;12.68;100.00;98468.88;5097108;28;20196;-80
2022/11/15 11:05:03;;;;;;;7.77;4.30;;;;;;;13.00;100.00;98471.47;5097367;27;20192;-80
2022/11/15 11:07:35;;;;;;;6.70;4.20;;;;;;;13.05;100.00;98462.16;5094619;28;20187;-81
2022/11/15 11:10:19;;;;;;;11.60;6.43;;;;;;;13.22;100.00;98459.88;5096012;28;20198;-81
2022/11/15 11:13:15;;;;;;;8.27;4.73;;;;;;;13.16;100.00;98439.97;5095133;28;20202;-80
2022/11/15 11:15:52;;;;;;;7.27;4.30;;;;;;;13.36;100.00;98433.78;5093043;28;20192;-80
2022/11/15 11:18:28;;;;;;;10.07;4.90;;;;;;;13.60;100.00;98427.28;5094923;28;20234;-80
2022/11/15 11:21:04;;;;;;;17.53;14.47;;;;;;;13.77;100.00;98423.97;5092938;28;20187;-80
2022/11/15 11:23:53;;;;;;;6.80;4.90;;;;;;;13.70;100.00;98415.72;5093571;28;20199;-80
2022/11/15 11:26:41;;;;;;;6.57;4.30;;;;;;;13.73;100.00;98415.44;5093239;28;20184;-81
2022/11/15 11:29:25;;;;;;;6.80;4.10;;;;;;;13.86;100.00;98406.34;5095522;28;20667;-80
2022/11/15 11:32:04;;;;;;;6.03;4.00;;;;;;;14.20;100.00;98393.50;5092437;28;20199;-81
2022/11/15 11:34:48;;;;;;;9.17;4.27;;;;;;;14.51;100.00;98387.06;5095913;28;20311;-81
2022/11/15 11:37:25;;;;;;;5.67;4.40;;;;;;;14.72;100.00;98397.56;5095619;28;20195;-81
2022/11/15 11:40:11;;;;;;;7.60;4.33;;;;;;;14.45;100.00;98382.28;5095364;28;20216;-80
2022/11/15 11:42:49;;;;;;;6.10;3.93;;;;;;;14.57;100.00;98375.84;5094151;28;20323;-80
2022/11/15 11:45:26;;;;;;;7.23;4.07;;;;;;;14.60;100.00;98374.72;5095198;28;20235;-81
2022/11/15 11:48:03;;;;;;;7.00;5.03;;;;;;;14.58;100.00;98372.19;5035193;28;20197;-80
2022/11/15 11:50:33;;;;;;;7.53;4.47;;;;;;;14.72;100.00;98375.38;5029505;28;20224;-80
2022/11/15 11:53:09;;;;;;;8.67;4.73;;;;;;;14.58;100.00;98374.03;5026846;28;20194;-80
2022/11/15 11:55:42;;;;;;;9.37;5.03;;;;;;;14.64;100.00;98356.59;5027583;28;20255;-80
2022/11/15 11:58:17;;;;;;;10.00;4.80;;;;;;;14.55;100.00;98343.16;5027013;28;20711;-80
2022/11/15 12:00:52;;;;;;;6.87;4.67;;;;;;;14.41;100.00;98338.25;5026269;28;20244;-80